CheckWX is a tool to help pilots better visualize weather data.  It is not intended as a substitute for an official pre-flight weather briefing.

01:10:48 UTC

KHDO METAR
South Texas Regional at Hondo Airport
Hondo, Texas, USA
Current

20 mins ago

KHDO 280051Z AUTO 17008KT 10SM CLR 29/18 A2977 RMK AO2 SLP067 T02890183
Observed
May-28 @ 00:51 UTC
Wind
  • 170° at 8 KTS
Visibility
Flight Rules
VFR
Cloud Levels
  • Clear skies
Temperature
29°C / 84°F
Dewpoint
18°C / 64°F
Humidity
51%
Altimeter
29.77" Hg
Pressure
1008.12 hPa
Previous

1 hour ago

KHDO 272351Z AUTO 17012KT 10SM CLR 32/18 A2975 RMK AO2 SLP059 T03170183 10328 20300 56021
Observed
May-27 @ 23:51 UTC
Wind
  • 170° at 12 KTS
Visibility
Flight Rules
VFR
Cloud Levels
  • Clear skies
Temperature
32°C / 90°F
Dewpoint
18°C / 64°F
Humidity
43%
Altimeter
29.75" Hg
Pressure
1007.42 hPa
Previous

2 hours ago

KHDO 272251Z AUTO 17013KT 10SM CLR 32/18 A2977 RMK AO2 SLP066 T03220178
Observed
May-27 @ 22:51 UTC
Wind
  • 170° at 13 KTS
Visibility
Flight Rules
VFR
Cloud Levels
  • Clear skies
Temperature
32°C / 90°F
Dewpoint
18°C / 64°F
Humidity
43%
Altimeter
29.77" Hg
Pressure
1008.12 hPa